Time;durP1;ratioP1;P1;durP2;ratioP2;P2;SDS_P1;SDS_P2;PMS_P1;PMS_P2;Temp;Humidity;BMP_temperature;BMP_pressure;BME280_temperature;BME280_humidity;BME280_pressure;Samples;Min_cycle;Max_cycle;Signal;HPM_P1;HPM_P2
2021/05/20 00:00:08;;;;;;;19.42;15.48;;;;;;;;;;5001970;28;20036;-88
2021/05/20 00:02:35;;;;;;;17.25;14.13;;;;;;;;;;5001712;28;20382;-87
2021/05/20 00:05:01;;;;;;;17.27;13.52;;;;;;;;;;5001609;28;20053;-89
2021/05/20 00:07:27;;;;;;;22.63;15.73;;;;;;;;;;5001800;28;20019;-91
2021/05/20 00:09:53;;;;;;;18.25;14.63;;;;;;;;;;5002078;28;20027;-90
2021/05/20 00:12:19;;;;;;;20.83;14.60;;;;;;;;;;5001421;28;20034;-90
2021/05/20 00:14:45;;;;;;;17.92;14.18;;;;;;;;;;5001422;28;20030;-90
2021/05/20 00:17:11;;;;;;;21.98;15.80;;;;;;;;;;5001513;28;20038;-90
2021/05/20 00:19:37;;;;;;;18.95;15.25;;;;;;;;;;5001643;28;20030;-88
2021/05/20 00:22:03;;;;;;;22.02;15.90;;;;;;;;;;5001121;28;20065;-87
2021/05/20 00:24:29;;;;;;;17.85;14.30;;;;;;;;;;5001177;28;20023;-87
2021/05/20 00:26:55;;;;;;;18.38;14.00;;;;;;;;;;5001557;28;20033;-88
2021/05/20 00:29:21;;;;;;;17.98;14.07;;;;;;;;;;5001386;28;20034;-87
2021/05/20 00:31:48;;;;;;;16.60;13.52;;;;;;;;;;5001301;28;20050;-88
2021/05/20 00:34:14;;;;;;;19.25;14.00;;;;;;;;;;5001048;28;20089;-88
2021/05/20 00:36:40;;;;;;;16.77;13.52;;;;;;;;;;5001051;28;20030;-87
2021/05/20 00:39:06;;;;;;;16.13;12.80;;;;;;;;;;5000879;28;20026;-89
2021/05/20 00:41:32;;;;;;;15.88;13.18;;;;;;;;;;5000672;28;20125;-87
2021/05/20 00:43:58;;;;;;;17.23;12.45;;;;;;;;;;5000992;28;20018;-89
2021/05/20 00:46:25;;;;;;;14.88;12.10;;;;;;;;;;5000944;28;20018;-89
2021/05/20 00:48:51;;;;;;;16.48;12.52;;;;;;;;;;5000024;28;20389;-89
2021/05/20 00:51:17;;;;;;;16.55;12.77;;;;;;;;;;5000727;28;20032;-89
2021/05/20 00:53:44;;;;;;;13.75;11.10;;;;;;;;;;5000723;28;20033;-88
2021/05/20 00:56:11;;;;;;;14.85;11.75;;;;;;;;;;5000126;28;20038;-88
2021/05/20 00:58:38;;;;;;;14.30;11.18;;;;;;;;;;4999943;28;20113;-88
2021/05/20 01:01:04;;;;;;;14.38;11.77;;;;;;;;;;5000558;28;20440;-90
2021/05/20 01:03:32;;;;;;;17.65;10.90;;;;;;;;;;5000469;28;20114;-90
2021/05/20 01:05:58;;;;;;;12.23;10.68;;;;;;;;;;5000830;28;20026;-89
2021/05/20 01:08:25;;;;;;;13.73;10.05;;;;;;;;;;5000527;28;20022;-89
2021/05/20 01:10:54;;;;;;;14.48;10.00;;;;;;;;;;4999509;28;20050;-90
2021/05/20 01:13:21;;;;;;;17.55;10.68;;;;;;;;;;5000472;28;20053;-90
2021/05/20 01:15:48;;;;;;;14.18;11.05;;;;;;;;;;4999276;28;20446;-89
2021/05/20 01:18:14;;;;;;;15.32;11.02;;;;;;;;;;5000352;28;20088;-90
2021/05/20 01:20:41;;;;;;;14.20;11.57;;;;;;;;;;5000250;28;20409;-89
2021/05/20 01:23:07;;;;;;;14.10;11.38;;;;;;;;;;4999972;28;20026;-88
2021/05/20 01:25:33;;;;;;;13.05;11.65;;;;;;;;;;5000539;28;20423;-88
2021/05/20 01:28:03;;;;;;;17.83;12.65;;;;;;;;;;4999171;28;20038;-89
2021/05/20 01:30:33;;;;;;;13.93;12.25;;;;;;;;;;5000028;28;20067;-87
2021/05/20 01:32:59;;;;;;;15.48;12.02;;;;;;;;;;4998708;28;20077;-91
2021/05/20 01:35:25;;;;;;;12.82;10.98;;;;;;;;;;5000020;28;20053;-90
2021/05/20 01:37:52;;;;;;;14.65;11.57;;;;;;;;;;5000014;28;20019;-90
2021/05/20 01:40:18;;;;;;;16.30;11.68;;;;;;;;;;5000075;28;20101;-90
2021/05/20 01:42:44;;;;;;;13.80;11.70;;;;;;;;;;4999666;28;20031;-90
2021/05/20 01:45:11;;;;;;;12.63;10.90;;;;;;;;;;4999854;28;20025;-88
2021/05/20 01:47:37;;;;;;;15.60;10.88;;;;;;;;;;5000105;28;20345;-90
2021/05/20 01:50:04;;;;;;;14.07;11.15;;;;;;;;;;4998815;28;20026;-90
2021/05/20 01:52:30;;;;;;;14.50;11.38;;;;;;;;;;4999373;28;20030;-91
2021/05/20 01:54:57;;;;;;;13.23;11.35;;;;;;;;;;4998610;28;20082;-87
2021/05/20 01:57:23;;;;;;;13.65;11.65;;;;;;;;;;4999767;28;20060;-88
2021/05/20 01:59:49;;;;;;;14.88;12.32;;;;;;;;;;4999654;28;20026;-88
2021/05/20 02:02:15;;;;;;;13.50;11.50;;;;;;;;;;4998502;28;20401;-87
2021/05/20 02:04:41;;;;;;;14.88;11.43;;;;;;;;;;4999217;28;20399;-87
2021/05/20 02:07:07;;;;;;;13.23;11.23;;;;;;;;;;4999363;28;20022;-89
2021/05/20 02:09:33;;;;;;;14.18;10.32;;;;;;;;;;4999769;28;20044;-88
2021/05/20 02:11:59;;;;;;;12.00;10.27;;;;;;;;;;4999397;28;20046;-89
2021/05/20 02:14:25;;;;;;;10.90;9.70;;;;;;;;;;4999433;28;20022;-89
2021/05/20 02:16:51;;;;;;;11.40;9.60;;;;;;;;;;4998117;28;20030;-89
2021/05/20 02:19:17;;;;;;;10.65;8.57;;;;;;;;;;4999209;28;20041;-89
2021/05/20 02:21:43;;;;;;;11.68;9.13;;;;;;;;;;4999089;28;20046;-88
2021/05/20 02:24:09;;;;;;;14.52;10.10;;;;;;;;;;4998955;28;20022;-88
2021/05/20 02:26:36;;;;;;;11.07;9.85;;;;;;;;;;4999145;28;20109;-88
2021/05/20 02:29:02;;;;;;;12.63;11.13;;;;;;;;;;4999077;28;20412;-88
2021/05/20 02:31:28;;;;;;;12.13;10.52;;;;;;;;;;4999104;28;20045;-88
2021/05/20 02:33:54;;;;;;;13.77;10.90;;;;;;;;;;4998818;28;20100;-88
2021/05/20 02:36:20;;;;;;;12.45;10.85;;;;;;;;;;4998818;28;20036;-88
2021/05/20 02:38:46;;;;;;;12.32;10.43;;;;;;;;;;4998650;28;20081;-88
2021/05/20 02:41:12;;;;;;;12.68;10.88;;;;;;;;;;4998636;28;20030;-89
2021/05/20 02:43:38;;;;;;;12.55;10.50;;;;;;;;;;4998554;28;20027;-90
2021/05/20 02:46:04;;;;;;;13.02;11.07;;;;;;;;;;4999009;28;20085;-91
2021/05/20 02:48:30;;;;;;;13.57;11.55;;;;;;;;;;4998747;28;20025;-88
2021/05/20 02:50:56;;;;;;;12.68;11.27;;;;;;;;;;4998862;28;20332;-87
2021/05/20 02:53:23;;;;;;;14.93;11.60;;;;;;;;;;4997474;28;20022;-87
2021/05/20 02:55:49;;;;;;;12.85;11.07;;;;;;;;;;4997810;28;20033;-87
2021/05/20 02:58:17;;;;;;;13.00;11.43;;;;;;;;;;4998549;28;20401;-87
2021/05/20 03:00:46;;;;;;;13.18;11.40;;;;;;;;;;4997585;28;20442;-95
2021/05/20 03:03:13;;;;;;;13.55;12.05;;;;;;;;;;4997430;28;20035;-95
2021/05/20 03:05:39;;;;;;;11.98;10.68;;;;;;;;;;4998493;28;20030;-95
2021/05/20 03:08:05;;;;;;;12.70;10.30;;;;;;;;;;4998350;28;20409;-93
2021/05/20 03:10:31;;;;;;;11.43;10.00;;;;;;;;;;4998639;28;20036;-87
2021/05/20 03:12:57;;;;;;;10.98;9.88;;;;;;;;;;4997664;28;20034;-87
2021/05/20 03:15:23;;;;;;;11.50;10.15;;;;;;;;;;4998471;28;20340;-90
2021/05/20 03:17:50;;;;;;;13.07;10.13;;;;;;;;;;4998145;28;20115;-90
2021/05/20 03:20:16;;;;;;;12.27;9.25;;;;;;;;;;4998160;28;20034;-90
2021/05/20 03:22:42;;;;;;;9.60;8.60;;;;;;;;;;4998016;28;20030;-88
2021/05/20 03:25:08;;;;;;;11.82;8.25;;;;;;;;;;4998143;28;20035;-89
2021/05/20 03:27:34;;;;;;;11.23;8.93;;;;;;;;;;4998051;28;20038;-89
2021/05/20 03:30:00;;;;;;;10.95;8.60;;;;;;;;;;4997172;28;20037;-89
2021/05/20 03:32:26;;;;;;;10.52;9.38;;;;;;;;;;4998253;28;20035;-90
2021/05/20 03:34:53;;;;;;;11.55;10.10;;;;;;;;;;4997943;28;20348;-90
2021/05/20 03:37:19;;;;;;;16.45;13.10;;;;;;;;;;4998281;28;20027;-90
2021/05/20 03:39:45;;;;;;;16.52;11.50;;;;;;;;;;4998011;28;20038;-90
2021/05/20 03:42:11;;;;;;;17.38;13.48;;;;;;;;;;4996620;28;20447;-88
2021/05/20 03:44:37;;;;;;;17.73;12.95;;;;;;;;;;4998094;28;20026;-88
2021/05/20 03:47:03;;;;;;;14.32;12.65;;;;;;;;;;4996976;28;20126;-89
2021/05/20 03:49:29;;;;;;;20.75;13.77;;;;;;;;;;4997988;28;20022;-89
2021/05/20 03:51:55;;;;;;;20.58;14.65;;;;;;;;;;4997965;28;20325;-89
2021/05/20 03:54:21;;;;;;;17.13;13.43;;;;;;;;;;4996988;28;20388;-89
2021/05/20 03:56:47;;;;;;;14.73;12.63;;;;;;;;;;4997793;28;20034;-92
2021/05/20 03:59:13;;;;;;;14.95;12.18;;;;;;;;;;4996854;28;20117;-88
2021/05/20 04:01:40;;;;;;;17.33;12.65;;;;;;;;;;4997464;28;20026;-88
2021/05/20 04:04:06;;;;;;;15.30;11.45;;;;;;;;;;4996750;28;20038;-89
2021/05/20 04:06:32;;;;;;;16.55;11.43;;;;;;;;;;4997634;28;20031;-88
2021/05/20 04:08:59;;;;;;;17.33;12.25;;;;;;;;;;4996662;28;20030;-87
2021/05/20 04:11:26;;;;;;;15.80;11.80;;;;;;;;;;4996648;28;20062;-88
2021/05/20 04:13:52;;;;;;;14.77;11.88;;;;;;;;;;4996605;28;20042;-88
2021/05/20 04:16:23;;;;;;;17.20;11.43;;;;;;;;;;4996437;28;20042;-88
2021/05/20 04:18:49;;;;;;;12.00;10.05;;;;;;;;;;4997575;28;20023;-87
2021/05/20 04:21:15;;;;;;;12.63;10.30;;;;;;;;;;4996605;28;20034;-88
2021/05/20 04:23:45;;;;;;;13.82;10.70;;;;;;;;;;4997555;28;20085;-89
2021/05/20 04:26:11;;;;;;;14.45;10.80;;;;;;;;;;4997441;28;20019;-88
2021/05/20 04:28:37;;;;;;;13.07;9.85;;;;;;;;;;4997519;28;20436;-88
2021/05/20 04:31:04;;;;;;;13.38;9.98;;;;;;;;;;4998226;28;20053;-89
2021/05/20 04:33:30;;;;;;;12.07;8.90;;;;;;;;;;5000887;28;20050;-86
2021/05/20 04:35:56;;;;;;;11.45;9.60;;;;;;;;;;5001088;28;20030;-86
2021/05/20 04:38:22;;;;;;;12.80;9.75;;;;;;;;;;5001194;28;20309;-89
2021/05/20 04:40:48;;;;;;;14.05;10.65;;;;;;;;;;4999858;28;20425;-88
2021/05/20 04:43:14;;;;;;;9.30;8.07;;;;;;;;;;5000758;28;20023;-88
2021/05/20 04:45:44;;;;;;;9.73;8.30;;;;;;;;;;5000780;28;20018;-89
2021/05/20 04:48:10;;;;;;;9.07;7.78;;;;;;;;;;4999400;28;20034;-88
2021/05/20 04:50:36;;;;;;;10.57;8.88;;;;;;;;;;4999580;28;20031;-89
2021/05/20 04:53:02;;;;;;;8.77;7.88;;;;;;;;;;5000671;28;20409;-86
2021/05/20 04:55:28;;;;;;;7.85;7.05;;;;;;;;;;4999730;28;20042;-86
2021/05/20 04:57:54;;;;;;;10.32;9.32;;;;;;;;;;5000755;28;20042;-87
2021/05/20 05:00:21;;;;;;;11.10;10.00;;;;;;;;;;4999681;28;20030;-86
2021/05/20 05:02:47;;;;;;;8.32;7.45;;;;;;;;;;5000654;28;20037;-87
2021/05/20 05:05:13;;;;;;;8.38;6.70;;;;;;;;;;5000513;28;20030;-87
2021/05/20 05:07:39;;;;;;;11.75;6.80;;;;;;;;;;5000344;28;20018;-85
2021/05/20 05:10:06;;;;;;;7.35;6.65;;;;;;;;;;5000378;28;20065;-90
2021/05/20 05:12:32;;;;;;;6.63;5.93;;;;;;;;;;4999877;28;20030;-89
2021/05/20 05:14:58;;;;;;;8.30;6.40;;;;;;;;;;5000059;28;20412;-89
2021/05/20 05:17:25;;;;;;;6.18;5.57;;;;;;;;;;5000577;28;20050;-89
2021/05/20 05:19:51;;;;;;;5.80;5.20;;;;;;;;;;5000316;28;20022;-87
2021/05/20 05:22:17;;;;;;;5.57;5.07;;;;;;;;;;4999153;28;20029;-86
2021/05/20 05:24:43;;;;;;;6.10;5.50;;;;;;;;;;4999176;28;20030;-87
2021/05/20 05:27:09;;;;;;;6.03;5.43;;;;;;;;;;5000176;28;20030;-87
2021/05/20 05:29:35;;;;;;;6.07;5.47;;;;;;;;;;5000014;28;20046;-87
2021/05/20 05:32:02;;;;;;;5.00;4.50;;;;;;;;;;4999012;28;20055;-88
2021/05/20 05:34:28;;;;;;;6.07;4.53;;;;;;;;;;4999766;28;20049;-88
2021/05/20 05:36:54;;;;;;;4.13;3.55;;;;;;;;;;4998763;28;20034;-87
2021/05/20 05:39:20;;;;;;;6.47;3.67;;;;;;;;;;4998998;28;20061;-88
2021/05/20 05:41:46;;;;;;;4.07;3.55;;;;;;;;;;4999495;28;20088;-87
2021/05/20 05:44:12;;;;;;;4.13;3.72;;;;;;;;;;4999764;28;20413;-88
2021/05/20 05:46:39;;;;;;;5.95;3.50;;;;;;;;;;4999933;28;20105;-88
2021/05/20 05:49:15;;;;;;;3.90;3.38;;;;;;;;;;4999790;28;20029;-86
2021/05/20 05:51:44;;;;;;;3.67;3.38;;;;;;;;;;4998852;28;20050;-85
2021/05/20 05:54:10;;;;;;;3.47;3.13;;;;;;;;;;4999325;28;20085;-76
2021/05/20 05:56:36;;;;;;;3.88;2.90;;;;;;;;;;4999003;28;20396;-76
2021/05/20 05:59:03;;;;;;;3.15;2.85;;;;;;;;;;4999172;28;20022;-75
2021/05/20 06:01:29;;;;;;;4.72;2.92;;;;;;;;;;4998811;28;20061;-76
2021/05/20 06:03:55;;;;;;;3.38;3.00;;;;;;;;;;4997828;28;20034;-76
2021/05/20 06:06:21;;;;;;;3.75;3.35;;;;;;;;;;4997836;28;20045;-76
2021/05/20 06:08:47;;;;;;;6.00;3.42;;;;;;;;;;4998763;28;20033;-76
2021/05/20 06:11:13;;;;;;;3.78;3.47;;;;;;;;;;4998761;28;20358;-75
2021/05/20 06:13:39;;;;;;;5.43;3.70;;;;;;;;;;4998866;28;20033;-75
2021/05/20 06:16:05;;;;;;;4.00;3.60;;;;;;;;;;4998807;28;20037;-75
2021/05/20 06:18:31;;;;;;;4.05;3.65;;;;;;;;;;4998467;28;20026;-76
2021/05/20 06:20:57;;;;;;;7.18;3.83;;;;;;;;;;4998418;28;20030;-75
2021/05/20 06:23:24;;;;;;;3.55;3.25;;;;;;;;;;4998727;28;20018;-75
2021/05/20 06:25:50;;;;;;;4.85;3.40;;;;;;;;;;4998510;28;20022;-76
2021/05/20 06:28:16;;;;;;;5.35;3.80;;;;;;;;;;4997276;28;20033;-75
2021/05/20 06:30:42;;;;;;;3.65;3.22;;;;;;;;;;4998532;28;20034;-75
2021/05/20 06:33:08;;;;;;;4.88;3.50;;;;;;;;;;4996969;28;20046;-75
2021/05/20 06:35:34;;;;;;;3.58;2.65;;;;;;;;;;4997246;28;20109;-75
2021/05/20 06:38:00;;;;;;;3.05;2.72;;;;;;;;;;4998314;28;20019;-76
2021/05/20 06:40:26;;;;;;;3.95;3.53;;;;;;;;;;4998291;28;20022;-75
2021/05/20 06:42:52;;;;;;;3.00;2.30;;;;;;;;;;4998302;28;20076;-75
2021/05/20 06:45:18;;;;;;;3.70;2.92;;;;;;;;;;4998335;28;20026;-76
2021/05/20 06:47:44;;;;;;;1.77;1.65;;;;;;;;;;4997134;28;20041;-76
2021/05/20 06:50:11;;;;;;;1.60;1.50;;;;;;;;;;4998008;28;20027;-76
2021/05/20 06:52:37;;;;;;;2.45;1.70;;;;;;;;;;4997661;28;20421;-75
2021/05/20 06:55:03;;;;;;;2.58;2.38;;;;;;;;;;4997712;28;20031;-75
2021/05/20 06:59:56;;;;;;;2.00;1.50;;;;;;;;;;4996768;28;20057;-75
2021/05/20 07:00:16;;;;;;;2.05;1.60;;;;;;;;;;4997881;28;20113;-75
2021/05/20 07:02:42;;;;;;;3.05;1.88;;;;;;;;;;4996650;28;20329;-75
2021/05/20 07:05:08;;;;;;;3.72;2.30;;;;;;;;;;4998082;28;20027;-75
2021/05/20 07:07:38;;;;;;;2.13;1.77;;;;;;;;;;4997745;28;20022;-75
2021/05/20 07:10:04;;;;;;;3.83;3.30;;;;;;;;;;4998040;28;20349;-75
2021/05/20 07:12:30;;;;;;;3.72;3.42;;;;;;;;;;4997646;28;20405;-75
2021/05/20 07:14:58;;;;;;;2.42;2.05;;;;;;;;;;4997762;28;20030;-75
2021/05/20 07:17:24;;;;;;;5.00;4.20;;;;;;;;;;4996168;28;20060;-76
2021/05/20 07:19:50;;;;;;;9.45;8.60;;;;;;;;;;4996558;28;20030;-76
2021/05/20 07:22:16;;;;;;;5.05;3.60;;;;;;;;;;4997461;28;20073;-75
2021/05/20 07:24:44;;;;;;;3.33;2.47;;;;;;;;;;4996437;28;20069;-75
2021/05/20 07:27:10;;;;;;;5.25;4.75;;;;;;;;;;4997763;28;20049;-75
2021/05/20 07:29:37;;;;;;;2.70;2.38;;;;;;;;;;4996567;28;20047;-75
2021/05/20 07:32:04;;;;;;;3.95;2.85;;;;;;;;;;4997632;28;20121;-75
2021/05/20 07:34:32;;;;;;;4.28;2.85;;;;;;;;;;4996324;28;20073;-75
2021/05/20 07:36:59;;;;;;;3.92;3.13;;;;;;;;;;4997415;28;20080;-75
2021/05/20 07:39:25;;;;;;;5.50;5.00;;;;;;;;;;4996528;28;20313;-75
2021/05/20 07:41:51;;;;;;;13.30;11.80;;;;;;;;;;4997312;28;20351;-75
2021/05/20 07:44:17;;;;;;;7.47;6.07;;;;;;;;;;4997385;28;20023;-75
2021/05/20 07:46:43;;;;;;;12.02;10.82;;;;;;;;;;4996265;28;20035;-75
2021/05/20 07:49:09;;;;;;;9.23;7.25;;;;;;;;;;4996394;28;20327;-75
2021/05/20 07:51:35;;;;;;;5.13;3.80;;;;;;;;;;4992009;28;20031;-76
2021/05/20 07:54:01;;;;;;;2.65;2.38;;;;;;;;;;4987887;28;20105;-76
2021/05/20 07:56:27;;;;;;;4.97;3.08;;;;;;;;;;4986119;28;20033;-75
2021/05/20 07:58:54;;;;;;;5.15;3.40;;;;;;;;;;4985800;28;20033;-75
2021/05/20 08:01:20;;;;;;;17.08;11.55;;;;;;;;;;4982320;28;20077;-75
2021/05/20 08:03:49;;;;;;;111.47;54.70;;;;;;;;;;4977700;28;20465;-75
2021/05/20 08:09:30;;;;;;;77.03;42.72;;;;;;;;;;4922312;29;20368;-75
2021/05/20 08:11:56;;;;;;;10.70;7.30;;;;;;;;;;4922141;29;20039;-75
2021/05/20 08:14:22;;;;;;;10.45;6.30;;;;;;;;;;4922079;29;20203;-75
2021/05/20 08:16:49;;;;;;;6.20;4.90;;;;;;;;;;4922015;29;20430;-75
2021/05/20 08:19:15;;;;;;;10.68;5.68;;;;;;;;;;4922030;29;20423;-75
2021/05/20 08:21:41;;;;;;;5.68;3.90;;;;;;;;;;4922465;29;20032;-75
2021/05/20 08:24:07;;;;;;;6.18;3.80;;;;;;;;;;4922072;29;20119;-75
2021/05/20 08:26:33;;;;;;;7.15;4.28;;;;;;;;;;4922252;29;20032;-75
2021/05/20 08:29:00;;;;;;;40.70;30.08;;;;;;;;;;4921876;29;20028;-75
2021/05/20 08:31:26;;;;;;;19.08;15.88;;;;;;;;;;4922060;29;20036;-87
2021/05/20 08:33:53;;;;;;;10.43;8.45;;;;;;;;;;4922166;29;20044;-87
2021/05/20 08:36:19;;;;;;;7.85;7.05;;;;;;;;;;4922588;29;20072;-87
2021/05/20 08:38:45;;;;;;;6.45;5.43;;;;;;;;;;4922404;29;20119;-78
2021/05/20 08:41:11;;;;;;;14.13;12.73;;;;;;;;;;4921643;29;20028;-80
2021/05/20 08:43:38;;;;;;;8.43;4.70;;;;;;;;;;4921675;29;20020;-78
2021/05/20 08:46:05;;;;;;;6.05;5.45;;;;;;;;;;4955628;28;20051;-78
2021/05/20 08:48:31;;;;;;;10.93;9.82;;;;;;;;;;4980454;28;20027;-80
2021/05/20 08:50:59;;;;;;;31.13;21.58;;;;;;;;;;4981701;28;20038;-94
2021/05/20 08:53:25;;;;;;;12.30;9.50;;;;;;;;;;4980711;28;20027;-90
2021/05/20 08:55:51;;;;;;;11.90;10.68;;;;;;;;;;4981387;28;20081;-90
2021/05/20 08:58:22;;;;;;;7.53;6.72;;;;;;;;;;4980227;28;20023;-88
2021/05/20 09:00:48;;;;;;;14.10;12.68;;;;;;;;;;4981172;28;20111;-90
2021/05/20 09:03:14;;;;;;;17.17;12.73;;;;;;;;;;4981565;28;20018;-90
2021/05/20 09:05:41;;;;;;;8.77;7.05;;;;;;;;;;4980169;28;20031;-90
2021/05/20 09:08:13;;;;;;;13.88;8.70;;;;;;;;;;4981213;28;20023;-89
2021/05/20 09:10:40;;;;;;;14.07;8.52;;;;;;;;;;4981004;28;20077;-90
2021/05/20 09:13:08;;;;;;;16.10;10.23;;;;;;;;;;4980951;28;20118;-88
2021/05/20 09:15:38;;;;;;;15.50;9.75;;;;;;;;;;4980484;28;20427;-88
2021/05/20 09:18:11;;;;;;;10.70;8.88;;;;;;;;;;4979631;28;20023;-88
2021/05/20 09:20:38;;;;;;;18.15;11.63;;;;;;;;;;4979945;28;20031;-88
2021/05/20 09:23:07;;;;;;;10.40;8.85;;;;;;;;;;4980514;28;20034;-88
2021/05/20 09:25:34;;;;;;;14.27;9.43;;;;;;;;;;4980900;28;20414;-88
2021/05/20 09:28:00;;;;;;;15.88;9.57;;;;;;;;;;4980656;28;20073;-88
2021/05/20 09:30:28;;;;;;;12.70;8.43;;;;;;;;;;4979743;28;20055;-87
2021/05/20 09:32:58;;;;;;;43.42;26.00;;;;;;;;;;4980375;28;20102;-89
2021/05/20 09:35:32;;;;;;;60.28;35.38;;;;;;;;;;4980173;28;20081;-88
2021/05/20 09:38:02;;;;;;;13.20;9.27;;;;;;;;;;4979631;28;20139;-89
2021/05/20 09:40:30;;;;;;;25.92;16.48;;;;;;;;;;4979840;28;20046;-89
2021/05/20 09:46:00;;;;;;;22.90;16.38;;;;;;;;;;4980797;28;20091;-88
2021/05/20 09:48:33;;;;;;;12.07;10.07;;;;;;;;;;4979519;28;20058;-88
2021/05/20 09:50:59;;;;;;;24.13;18.60;;;;;;;;;;4980532;28;20340;-88
2021/05/20 09:53:26;;;;;;;36.63;26.67;;;;;;;;;;4980530;28;20023;-88
2021/05/20 09:55:54;;;;;;;26.67;17.80;;;;;;;;;;4979740;28;20019;-88
2021/05/20 10:04:29;;;;;;;62.50;41.15;;;;;;;;;;4980486;28;20034;-88
2021/05/20 10:06:56;;;;;;;20.70;15.30;;;;;;;;;;4979712;28;20023;-88
2021/05/20 10:09:23;;;;;;;13.77;10.70;;;;;;;;;;4979386;28;20428;-88
2021/05/20 10:14:53;;;;;;;11.95;10.50;;;;;;;;;;4980000;28;20472;-88
2021/05/20 10:17:20;;;;;;;10.80;9.52;;;;;;;;;;4979676;28;20053;-88
2021/05/20 10:19:46;;;;;;;13.52;10.20;;;;;;;;;;4979814;28;20027;-87
2021/05/20 10:22:14;;;;;;;14.88;10.80;;;;;;;;;;4978881;28;20039;-89
2021/05/20 10:24:42;;;;;;;16.08;11.05;;;;;;;;;;4978756;28;20061;-88
2021/05/20 10:27:12;;;;;;;18.35;12.38;;;;;;;;;;4978375;28;20134;-88
2021/05/20 10:29:38;;;;;;;20.13;12.73;;;;;;;;;;4977987;28;20235;-88
2021/05/20 10:32:05;;;;;;;17.48;11.73;;;;;;;;;;4979406;28;20105;-88
2021/05/20 10:34:31;;;;;;;17.80;11.88;;;;;;;;;;4979264;28;20055;-87
2021/05/20 10:37:06;;;;;;;20.95;13.32;;;;;;;;;;4979731;28;20303;-88
2021/05/20 10:39:32;;;;;;;13.68;11.07;;;;;;;;;;4979401;28;20148;-88
2021/05/20 10:41:58;;;;;;;12.25;10.40;;;;;;;;;;4979487;28;20045;-88
2021/05/20 10:44:26;;;;;;;25.70;14.75;;;;;;;;;;4979420;28;20025;-88
2021/05/20 10:47:00;;;;;;;25.25;14.93;;;;;;;;;;4978601;28;20082;-87
2021/05/20 10:49:45;;;;;;;31.05;18.45;;;;;;;;;;4979532;28;20050;-88
2021/05/20 10:52:30;;;;;;;26.77;16.90;;;;;;;;;;4978368;28;20026;-89
2021/05/20 10:55:00;;;;;;;23.60;13.90;;;;;;;;;;4979024;28;20038;-87
2021/05/20 10:57:44;;;;;;;24.35;16.63;;;;;;;;;;4979129;28;20433;-87
2021/05/20 11:00:31;;;;;;;19.13;12.65;;;;;;;;;;4979219;28;20051;-87
2021/05/20 11:02:59;;;;;;;15.50;10.85;;;;;;;;;;4955160;29;20039;-87
2021/05/20 11:05:54;;;;;;;14.90;9.85;;;;;;;;;;4957322;29;20039;-87
2021/05/20 11:08:26;;;;;;;17.83;9.00;;;;;;;;;;4918279;29;20039;-88
2021/05/20 11:10:52;;;;;;;;;;;;;;;;;;4920402;29;20072;-88
2021/05/20 11:16:35;;;;;;;14.02;9.18;;;;;;;;;;4920011;29;20063;-89
2021/05/20 11:19:16;;;;;;;10.43;8.68;;;;;;;;;;4919135;29;20064;-89
2021/05/20 11:22:04;;;;;;;9.40;8.02;;;;;;;;;;4919484;29;20043;-88
2021/05/20 11:24:30;;;;;;;10.60;8.57;;;;;;;;;;4919840;28;20032;-87
2021/05/20 11:27:03;;;;;;;13.35;8.63;;;;;;;;;;4919886;29;20043;-88
2021/05/20 11:29:30;;;;;;;12.57;8.77;;;;;;;;;;4919869;29;20033;-88
2021/05/20 11:32:02;;;;;;;12.88;9.75;;;;;;;;;;4919620;29;20040;-87
2021/05/20 11:37:29;;;;;;;15.90;11.02;;;;;;;;;;4919782;28;20047;-88
2021/05/20 11:39:55;;;;;;;18.58;11.57;;;;;;;;;;4931880;28;20035;-88
2021/05/20 11:42:22;;;;;;;17.20;13.15;;;;;;;;;;4964700;28;20035;-88
2021/05/20 11:44:49;;;;;;;17.55;10.98;;;;;;;;;;4992448;28;20042;-88
2021/05/20 11:47:15;;;;;;;12.65;10.35;;;;;;;;;;5001796;28;20026;-88
2021/05/20 11:49:42;;;;;;;16.13;12.43;;;;;;;;;;5001453;28;20022;-88
2021/05/20 11:52:10;;;;;;;9.82;7.20;;;;;;;;;;5002050;28;20054;-88
2021/05/20 11:54:36;;;;;;;8.77;7.35;;;;;;;;;;5000481;28;20372;-88
2021/05/20 11:57:03;;;;;;;12.65;9.00;;;;;;;;;;5001075;28;20026;-89
2021/05/20 11:59:32;;;;;;;13.15;9.20;;;;;;;;;;5000861;28;20022;-88
2021/05/20 12:01:58;;;;;;;16.75;12.50;;;;;;;;;;5000571;28;20085;-88
2021/05/20 12:04:25;;;;;;;11.32;9.10;;;;;;;;;;5001891;28;20023;-90
2021/05/20 12:06:52;;;;;;;9.15;8.25;;;;;;;;;;5001704;28;20122;-89
2021/05/20 12:09:18;;;;;;;11.90;9.98;;;;;;;;;;5001120;28;20022;-87
2021/05/20 12:11:44;;;;;;;10.90;9.30;;;;;;;;;;5000972;28;20093;-88
2021/05/20 12:14:26;;;;;;;12.45;11.15;;;;;;;;;;5001457;28;20031;-88
2021/05/20 12:16:58;;;;;;;12.38;11.07;;;;;;;;;;5001557;28;20022;-89
2021/05/20 12:19:25;;;;;;;11.48;10.05;;;;;;;;;;5001577;28;20290;-89
2021/05/20 12:22:08;;;;;;;12.50;10.20;;;;;;;;;;5000667;28;20378;-88
2021/05/20 12:24:37;;;;;;;14.07;11.68;;;;;;;;;;5001006;28;20023;-88
2021/05/20 12:27:07;;;;;;;13.45;11.60;;;;;;;;;;5001163;28;20026;-88
2021/05/20 12:29:34;;;;;;;12.55;9.68;;;;;;;;;;5000501;28;20026;-89
2021/05/20 12:32:00;;;;;;;11.75;9.30;;;;;;;;;;5001437;28;20022;-88
2021/05/20 12:34:26;;;;;;;10.70;7.50;;;;;;;;;;5000224;28;20058;-88
2021/05/20 12:37:01;;;;;;;9.75;8.48;;;;;;;;;;5001210;28;20030;-88
2021/05/20 12:39:27;;;;;;;10.50;9.10;;;;;;;;;;5000180;28;20417;-88
2021/05/20 12:41:53;;;;;;;12.20;9.35;;;;;;;;;;5000057;28;20035;-89
2021/05/20 12:44:20;;;;;;;12.80;8.40;;;;;;;;;;5001302;28;20027;-88
2021/05/20 12:46:46;;;;;;;8.07;7.00;;;;;;;;;;5001064;28;20053;-89
2021/05/20 12:49:19;;;;;;;18.52;8.35;;;;;;;;;;5000534;28;20030;-88
2021/05/20 12:51:55;;;;;;;12.23;10.02;;;;;;;;;;5000016;28;20084;-89
2021/05/20 12:54:26;;;;;;;12.45;10.77;;;;;;;;;;5000754;28;20404;-88
2021/05/20 12:57:01;;;;;;;13.48;10.80;;;;;;;;;;5001039;28;20038;-88
2021/05/20 12:59:37;;;;;;;12.27;10.93;;;;;;;;;;5000773;28;20121;-88
2021/05/20 13:02:07;;;;;;;11.63;10.05;;;;;;;;;;5000536;28;20022;-88
2021/05/20 13:04:33;;;;;;;11.48;10.07;;;;;;;;;;5000571;28;20026;-88
2021/05/20 13:06:59;;;;;;;14.20;11.63;;;;;;;;;;5000790;28;20046;-89
2021/05/20 13:09:29;;;;;;;11.88;10.02;;;;;;;;;;5000381;28;20018;-89
2021/05/20 13:11:59;;;;;;;16.10;11.30;;;;;;;;;;5000836;28;20101;-88
2021/05/20 13:14:44;;;;;;;13.00;10.23;;;;;;;;;;5000792;28;20022;-89
2021/05/20 13:22:31;;;;;;;11.80;9.25;;;;;;;;;;5000528;28;20030;-88
2021/05/20 13:25:01;;;;;;;13.75;9.95;;;;;;;;;;5000077;28;20092;-88
2021/05/20 13:27:28;;;;;;;15.70;10.80;;;;;;;;;;5000517;28;20046;-88
2021/05/20 13:29:59;;;;;;;17.90;11.73;;;;;;;;;;5000206;28;20389;-88
2021/05/20 13:34:51;;;;;;;11.77;10.35;;;;;;;;;;4999917;28;20046;-87
2021/05/20 13:37:17;;;;;;;13.95;9.75;;;;;;;;;;4999969;28;20034;-87
2021/05/20 13:39:44;;;;;;;13.30;10.63;;;;;;;;;;5000179;28;20101;-87
2021/05/20 13:42:10;;;;;;;11.88;9.70;;;;;;;;;;4998845;28;20041;-87
2021/05/20 13:44:45;;;;;;;11.18;9.98;;;;;;;;;;4999583;28;20325;-87
2021/05/20 13:47:11;;;;;;;15.68;12.70;;;;;;;;;;4998457;28;20030;-88
2021/05/20 13:49:41;;;;;;;17.75;13.35;;;;;;;;;;4999850;28;20022;-88
2021/05/20 13:52:08;;;;;;;16.25;13.15;;;;;;;;;;4998835;28;20042;-88
2021/05/20 13:54:34;;;;;;;15.13;13.52;;;;;;;;;;4999864;28;20480;-88
2021/05/20 13:57:13;;;;;;;18.23;14.95;;;;;;;;;;4999665;28;20028;-88
2021/05/20 13:59:42;;;;;;;16.83;13.77;;;;;;;;;;4999726;28;20467;-88
2021/05/20 14:02:11;;;;;;;15.55;12.65;;;;;;;;;;4998064;28;20038;-87
2021/05/20 14:04:40;;;;;;;15.95;13.05;;;;;;;;;;4998626;28;20026;-88
2021/05/20 14:07:14;;;;;;;14.82;12.02;;;;;;;;;;4999274;28;20018;-88
2021/05/20 14:09:40;;;;;;;18.92;11.95;;;;;;;;;;4997986;28;20037;-90
2021/05/20 14:12:07;;;;;;;14.30;12.30;;;;;;;;;;4999417;28;20049;-89
2021/05/20 14:14:34;;;;;;;17.15;14.98;;;;;;;;;;4999486;28;20022;-88
2021/05/20 14:17:00;;;;;;;17.58;15.15;;;;;;;;;;4999043;28;20026;-88
2021/05/20 14:19:28;;;;;;;15.63;14.02;;;;;;;;;;4999195;28;20026;-88
2021/05/20 14:21:54;;;;;;;18.10;15.75;;;;;;;;;;4998946;28;20429;-87
2021/05/20 14:24:20;;;;;;;16.02;14.32;;;;;;;;;;4999095;28;20030;-89
2021/05/20 14:26:47;;;;;;;18.88;15.48;;;;;;;;;;4998862;28;20015;-89
2021/05/20 14:29:13;;;;;;;15.85;14.15;;;;;;;;;;4999252;28;20041;-86
2021/05/20 14:31:40;;;;;;;16.77;14.75;;;;;;;;;;4998970;28;20089;-74
2021/05/20 14:34:06;;;;;;;17.63;15.02;;;;;;;;;;4998272;28;20042;-74
2021/05/20 14:36:32;;;;;;;17.90;14.60;;;;;;;;;;4997186;28;20038;-74
2021/05/20 14:38:58;;;;;;;18.50;15.55;;;;;;;;;;4997236;28;20064;-74
2021/05/20 14:41:24;;;;;;;17.95;15.48;;;;;;;;;;4998203;28;20034;-75
2021/05/20 14:43:50;;;;;;;19.02;15.20;;;;;;;;;;4998237;28;20054;-74
2021/05/20 14:46:16;;;;;;;18.85;14.43;;;;;;;;;;4998176;28;20030;-74
2021/05/20 14:48:43;;;;;;;17.48;15.15;;;;;;;;;;4997713;28;20105;-73
2021/05/20 14:51:17;;;;;;;16.05;13.55;;;;;;;;;;4997794;28;20019;-75
2021/05/20 14:53:54;;;;;;;16.90;13.07;;;;;;;;;;4997648;28;20033;-73
2021/05/20 15:07:06;;;;;;;14.65;9.60;;;;;;;;;;4998043;28;20424;-74